Time;durP1;ratioP1;P1;durP2;ratioP2;P2;SDS_P1;SDS_P2;PMS_P1;PMS_P2;Temp;Humidity;BMP_temperature;BMP_pressure;BME280_temperature;BME280_humidity;BME280_pressure;Samples;Min_cycle;Max_cycle;Signal;HPM_P1;HPM_P2
2024/01/30 00:02:09;;;;;;;;;;;;;;;22.91;18.34;99942.44;5096235;28;19928;-77
2024/01/30 00:04:35;;;;;;;;;;;;;;;23.10;18.09;99936.69;5110477;28;19989;-78
2024/01/30 00:07:01;;;;;;;;;;;;;;;22.97;18.74;99948.50;5102725;28;19926;-78
2024/01/30 00:09:27;;;;;;;;;;;;;;;23.12;18.61;99936.28;5101274;28;20328;-78
2024/01/30 00:11:53;;;;;;;;;;;;;;;23.38;18.03;99943.81;5098137;28;19920;-78
2024/01/30 00:14:19;;;;;;;;;;;;;;;23.48;17.80;99934.72;5094205;28;19920;-78
2024/01/30 00:16:45;;;;;;;;;;;;;;;23.54;18.22;99930.34;5106867;28;20446;-78
2024/01/30 00:19:11;;;;;;;;;;;;;;;23.27;18.00;99926.84;5088098;28;19919;-78
2024/01/30 00:21:37;;;;;;;;;;;;;;;23.05;18.12;99934.22;5106873;28;19924;-78
2024/01/30 00:24:04;;;;;;;;;;;;;;;22.79;18.57;99934.28;5103925;28;19946;-78
2024/01/30 00:26:30;;;;;;;;;;;;;;;23.06;18.14;99933.00;5105060;28;19959;-78
2024/01/30 00:28:56;;;;;;;;;;;;;;;22.78;18.05;99938.28;5105839;28;19963;-78
2024/01/30 00:31:22;;;;;;;;;;;;;;;22.84;18.10;99936.75;5097484;27;19943;-78
2024/01/30 00:33:48;;;;;;;;;;;;;;;22.92;18.01;99932.06;5081049;28;20388;-78
2024/01/30 00:36:14;;;;;;;;;;;;;;;22.90;18.03;99938.03;5105468;28;19927;-78
2024/01/30 00:38:40;;;;;;;;;;;;;;;23.21;17.57;99934.81;5094641;28;19920;-78
2024/01/30 00:41:08;;;;;;;;;;;;;;;23.19;17.52;99939.19;5100017;28;19920;-78
2024/01/30 00:43:34;;;;;;;;;;;;;;;23.07;17.42;99931.03;5104142;28;19924;-77
2024/01/30 00:46:00;;;;;;;;;;;;;;;23.10;17.52;99919.88;5104334;28;19920;-77
2024/01/30 00:48:26;;;;;;;;;;;;;;;23.43;17.03;99932.25;5098289;28;19973;-77
2024/01/30 00:50:52;;;;;;;;;;;;;;;23.36;17.31;99925.38;5093460;28;19920;-77
2024/01/30 00:53:18;;;;;;;;;;;;;;;22.99;17.33;99918.09;5097943;28;19920;-77
2024/01/30 00:55:44;;;;;;;;;;;;;;;22.98;17.33;99924.91;5108887;28;19934;-78
2024/01/30 00:58:10;;;;;;;;;;;;;;;23.15;17.40;99919.50;5099160;28;19947;-78
2024/01/30 01:00:37;;;;;;;;;;;;;;;23.09;17.20;99918.25;5098994;28;19934;-78
2024/01/30 01:03:03;;;;;;;;;;;;;;;23.04;17.61;99924.19;5105320;28;19926;-77
2024/01/30 01:05:29;;;;;;;;;;;;;;;23.22;17.94;99922.38;5114126;28;19969;-78
2024/01/30 01:07:55;;;;;;;;;;;;;;;23.31;17.14;99922.09;5105787;28;19965;-77
2024/01/30 01:10:22;;;;;;;;;;;;;;;23.22;16.88;99924.41;5106078;28;19916;-78
2024/01/30 01:12:48;;;;;;;;;;;;;;;22.91;17.02;99925.66;5100778;27;19920;-78
2024/01/30 01:15:14;;;;;;;;;;;;;;;23.00;16.78;99923.34;5108554;28;20281;-78
2024/01/30 01:17:40;;;;;;;;;;;;;;;22.83;17.33;99918.34;5101477;28;19924;-78
2024/01/30 01:20:07;;;;;;;;;;;;;;;22.93;17.49;99917.66;5108926;28;20046;-77
2024/01/30 01:22:34;;;;;;;;;;;;;;;22.83;17.39;99918.34;5100561;28;19916;-78
2024/01/30 01:25:00;;;;;;;;;;;;;;;22.45;17.75;99916.59;5095923;28;20343;-77
2024/01/30 01:27:26;;;;;;;;;;;;;;;22.40;17.92;99910.53;5100829;28;19920;-77
2024/01/30 01:29:53;;;;;;;;;;;;;;;22.54;17.71;99924.72;5100614;28;19916;-77
2024/01/30 01:32:19;;;;;;;;;;;;;;;22.63;17.72;99926.09;5096036;28;19978;-78
2024/01/30 01:34:45;;;;;;;;;;;;;;;22.73;17.66;99919.03;5101054;28;19924;-78
2024/01/30 01:37:11;;;;;;;;;;;;;;;22.75;17.14;99916.66;5096278;28;20388;-77
2024/01/30 01:39:37;;;;;;;;;;;;;;;22.33;17.46;99918.84;5104367;28;20297;-77
2024/01/30 01:42:04;;;;;;;;;;;;;;;22.29;17.45;99909.56;5099978;27;20011;-77
2024/01/30 01:44:30;;;;;;;;;;;;;;;22.35;18.44;99903.28;5081015;28;19985;-77
2024/01/30 01:46:56;;;;;;;;;;;;;;;22.32;17.96;99897.63;5081836;28;20410;-77
2024/01/30 01:49:27;;;;;;;;;;;;;;;21.58;18.74;99902.84;5089527;28;19927;-77
2024/01/30 01:51:54;;;;;;;;;;;;;;;21.70;18.51;99899.06;5078054;28;19921;-77
2024/01/30 01:54:20;;;;;;;;;;;;;;;22.20;18.25;99901.44;5082694;28;20445;-77
2024/01/30 01:56:46;;;;;;;;;;;;;;;22.61;17.55;99908.06;5083718;28;19931;-77
2024/01/30 01:59:12;;;;;;;;;;;;;;;22.73;17.22;99907.00;5086144;28;19955;-77
2024/01/30 02:01:40;;;;;;;;;;;;;;;22.58;17.33;99918.00;5079071;28;20371;-77
2024/01/30 02:04:07;;;;;;;;;;;;;;;22.40;17.61;99904.94;5076991;28;19974;-77
2024/01/30 02:06:33;;;;;;;;;;;;;;;22.57;17.35;99909.97;5081399;28;19928;-77
2024/01/30 02:08:59;;;;;;;;;;;;;;;22.19;17.50;99910.25;5076311;28;19921;-77
2024/01/30 02:11:26;;;;;;;;;;;;;;;22.23;17.93;99908.28;5079125;28;19916;-77
2024/01/30 02:13:52;;;;;;;;;;;;;;;22.16;17.60;99899.78;5085428;28;19950;-77
2024/01/30 02:16:18;;;;;;;;;;;;;;;22.20;17.69;99897.84;5081873;28;19921;-77
2024/01/30 02:18:47;;;;;;;;;;;;;;;22.20;17.46;99889.44;5083575;28;19956;-77
2024/01/30 02:21:16;;;;;;;;;;;;;;;21.90;18.04;99898.59;5080780;28;19921;-77
2024/01/30 02:23:46;;;;;;;;;;;;;;;21.72;18.27;99891.09;5086109;28;19920;-77
2024/01/30 02:26:13;;;;;;;;;;;;;;;21.97;17.88;99895.09;5087351;28;20378;-77
2024/01/30 02:28:39;;;;;;;;;;;;;;;22.19;17.89;99890.66;5086454;28;19942;-77
2024/01/30 02:31:05;;;;;;;;;;;;;;;22.21;17.46;99897.47;5083316;28;19920;-77
2024/01/30 02:33:31;;;;;;;;;;;;;;;22.28;17.44;99882.78;5081464;28;19921;-77
2024/01/30 02:35:57;;;;;;;;;;;;;;;22.43;17.16;99887.38;5085357;28;19920;-77
2024/01/30 02:38:26;;;;;;;;;;;;;;;22.62;17.22;99878.88;5079300;28;20289;-77
2024/01/30 02:40:53;;;;;;;;;;;;;;;22.82;17.26;99879.50;5093104;28;20274;-77
2024/01/30 02:43:19;;;;;;;;;;;;;;;22.72;17.31;99881.00;5082535;28;20021;-77
2024/01/30 02:45:45;;;;;;;;;;;;;;;22.60;17.45;99881.22;5081306;28;19924;-77
2024/01/30 02:48:11;;;;;;;;;;;;;;;22.55;17.46;99884.34;5078045;28;19916;-77
2024/01/30 02:50:37;;;;;;;;;;;;;;;22.72;17.47;99882.97;5086606;28;20300;-77
2024/01/30 02:53:03;;;;;;;;;;;;;;;22.60;17.20;99875.59;5077681;28;20023;-77
2024/01/30 02:55:29;;;;;;;;;;;;;;;22.43;17.46;99868.59;5078005;28;19927;-77
2024/01/30 02:57:55;;;;;;;;;;;;;;;22.41;17.63;99881.34;5087304;28;19924;-77
2024/01/30 03:00:21;;;;;;;;;;;;;;;22.34;17.38;99868.06;5083221;28;19972;-77
2024/01/30 03:02:47;;;;;;;;;;;;;;;22.45;17.29;99871.81;5075569;28;19920;-77
2024/01/30 03:05:13;;;;;;;;;;;;;;;22.47;17.27;99869.47;5083224;28;20302;-77
2024/01/30 03:07:39;;;;;;;;;;;;;;;22.62;17.19;99862.06;5088488;28;20000;-77
2024/01/30 03:10:06;;;;;;;;;;;;;;;22.22;17.61;99859.91;5078111;28;20030;-77
2024/01/30 03:12:32;;;;;;;;;;;;;;;21.83;18.07;99864.91;5094940;28;19920;-77
2024/01/30 03:14:58;;;;;;;;;;;;;;;22.06;17.95;99861.25;5085851;28;20316;-77
2024/01/30 03:17:24;;;;;;;;;;;;;;;22.34;17.61;99864.47;5076882;28;19936;-77
2024/01/30 03:19:50;;;;;;;;;;;;;;;22.55;17.06;99856.34;5058777;28;19920;-77
2024/01/30 03:22:16;;;;;;;;;;;;;;;22.40;17.57;99863.78;5087234;28;19927;-77
2024/01/30 03:24:42;;;;;;;;;;;;;;;22.18;17.54;99864.66;5086108;28;19927;-77
2024/01/30 03:27:08;;;;;;;;;;;;;;;22.38;17.47;99860.53;5090294;28;19943;-77
2024/01/30 03:29:35;;;;;;;;;;;;;;;22.34;17.33;99867.25;5077122;28;20400;-77
2024/01/30 03:32:01;;;;;;;;;;;;;;;22.58;17.27;99861.19;5081192;28;20013;-77
2024/01/30 03:34:27;;;;;;;;;;;;;;;22.71;17.08;99859.78;5076444;28;19935;-77
2024/01/30 03:36:53;;;;;;;;;;;;;;;22.50;17.12;99863.09;5079109;28;20300;-77
2024/01/30 03:39:19;;;;;;;;;;;;;;;22.23;17.45;99867.13;5074105;28;19939;-76
2024/01/30 03:41:45;;;;;;;;;;;;;;;22.40;17.26;99860.97;5078955;28;19924;-77
2024/01/30 03:44:11;;;;;;;;;;;;;;;22.51;17.27;99864.72;5091332;28;20288;-77
2024/01/30 03:46:37;;;;;;;;;;;;;;;22.60;17.10;99862.44;5089972;28;19969;-77
2024/01/30 03:49:03;;;;;;;;;;;;;;;21.66;17.38;99859.03;5076713;28;20252;-77
2024/01/30 03:51:29;;;;;;;;;;;;;;;21.69;17.34;99864.69;5081912;28;19920;-77
2024/01/30 03:53:55;;;;;;;;;;;;;;;21.94;17.33;99862.28;5077701;28;19928;-77
2024/01/30 03:56:21;;;;;;;;;;;;;;;21.59;17.97;99861.69;5077053;28;20219;-77
2024/01/30 03:58:47;;;;;;;;;;;;;;;21.44;18.08;99860.69;5086329;28;19924;-77
2024/01/30 04:01:14;;;;;;;;;;;;;;;21.67;17.79;99860.66;5083062;28;19924;-77
2024/01/30 04:03:40;;;;;;;;;;;;;;;22.15;17.68;99859.81;5062295;28;19920;-77
2024/01/30 04:06:07;;;;;;;;;;;;;;;22.55;16.90;99864.75;5086139;28;19921;-77
2024/01/30 04:08:33;;;;;;;;;;;;;;;22.68;16.51;99857.75;5089373;28;19927;-76
2024/01/30 04:11:02;;;;;;;;;;;;;;;22.42;16.24;99858.59;5087654;28;19920;-77
2024/01/30 04:13:28;;;;;;;;;;;;;;;21.75;17.08;99860.38;5085227;28;19930;-77
2024/01/30 04:15:56;;;;;;;;;;;;;;;22.01;16.98;99860.41;5079004;28;20281;-77
2024/01/30 04:18:22;;;;;;;;;;;;;;;21.91;17.13;99860.28;5073262;28;19928;-77
2024/01/30 04:20:48;;;;;;;;;;;;;;;21.80;17.41;99853.66;5073740;28;19917;-77
2024/01/30 04:23:14;;;;;;;;;;;;;;;21.98;17.28;99855.56;5073828;28;20278;-77
2024/01/30 04:25:40;;;;;;;;;;;;;;;22.25;17.05;99855.56;5077653;28;19940;-77
2024/01/30 04:28:06;;;;;;;;;;;;;;;22.29;16.84;99854.41;5073697;28;19925;-77
2024/01/30 04:30:32;;;;;;;;;;;;;;;22.29;16.88;99868.41;5084993;28;19928;-77
2024/01/30 04:32:58;;;;;;;;;;;;;;;22.33;16.87;99872.06;5059525;28;19916;-77
2024/01/30 04:35:24;;;;;;;;;;;;;;;22.24;17.00;99871.53;5079796;28;19920;-77
2024/01/30 04:37:52;;;;;;;;;;;;;;;22.24;17.21;99870.75;5083156;28;19916;-77
2024/01/30 04:40:18;;;;;;;;;;;;;;;22.35;16.66;99868.88;5083562;28;19921;-76
2024/01/30 04:42:44;;;;;;;;;;;;;;;21.94;16.63;99877.09;5088183;28;19944;-77
2024/01/30 04:45:10;;;;;;;;;;;;;;;21.84;16.85;99877.72;5062168;28;20282;-76
2024/01/30 04:47:36;;;;;;;;;;;;;;;21.63;16.77;99873.78;5083771;28;20381;-76
2024/01/30 04:50:04;;;;;;;;;;;;;;;21.71;16.50;99875.47;5087470;28;19923;-77
2024/01/30 04:52:30;;;;;;;;;;;;;;;20.82;17.21;99878.63;5075864;28;19920;-76
2024/01/30 04:54:56;;;;;;;;;;;;;;;20.54;18.05;99880.84;5087115;28;19924;-76
2024/01/30 04:57:22;;;;;;;;;;;;;;;20.13;18.96;99881.50;5090179;28;19916;-76
2024/01/30 04:59:48;;;;;;;;;;;;;;;20.49;18.23;99879.16;5085913;28;20258;-77
2024/01/30 05:02:14;;;;;;;;;;;;;;;21.04;17.96;99883.50;5089246;28;19920;-76
2024/01/30 05:04:41;;;;;;;;;;;;;;;21.25;17.92;99881.09;5082788;28;19971;-76
2024/01/30 05:07:07;;;;;;;;;;;;;;;21.52;17.38;99876.38;5081929;28;19920;-76
2024/01/30 05:09:33;;;;;;;;;;;;;;;21.13;16.90;99880.47;5085633;28;19928;-77
2024/01/30 05:11:59;;;;;;;;;;;;;;;21.34;17.24;99876.06;5084943;28;20289;-77
2024/01/30 05:14:25;;;;;;;;;;;;;;;21.55;17.50;99875.63;5080388;28;19925;-77
2024/01/30 05:16:51;;;;;;;;;;;;;;;21.54;17.64;99873.22;5076707;28;19935;-77
2024/01/30 05:19:17;;;;;;;;;;;;;;;21.64;17.27;99878.97;5077139;28;19924;-77
2024/01/30 05:21:43;;;;;;;;;;;;;;;21.71;17.10;99878.28;5076412;28;19920;-76
2024/01/30 05:24:10;;;;;;;;;;;;;;;21.81;17.16;99872.88;5076054;28;19975;-76
2024/01/30 05:26:36;;;;;;;;;;;;;;;21.93;16.88;99874.69;5079318;28;20511;-77
2024/01/30 05:29:03;;;;;;;;;;;;;;;21.63;17.03;99874.59;5072264;28;20296;-76
2024/01/30 05:31:29;;;;;;;;;;;;;;;21.49;17.34;99879.13;5077595;28;20661;-77
2024/01/30 05:33:55;;;;;;;;;;;;;;;21.72;17.58;99877.09;5077705;28;19928;-77
2024/01/30 05:36:21;;;;;;;;;;;;;;;22.03;17.16;99871.25;5076816;28;19932;-77
2024/01/30 05:38:47;;;;;;;;;;;;;;;22.12;16.81;99868.16;5073102;28;19916;-77
2024/01/30 05:41:13;;;;;;;;;;;;;;;22.09;16.94;99863.31;5064752;28;19927;-77
2024/01/30 05:43:39;;;;;;;;;;;;;;;22.15;16.72;99865.41;5096832;28;19923;-77
2024/01/30 05:46:06;;;;;;;;;;;;;;;21.78;17.17;99868.03;5099745;28;20014;-77
2024/01/30 05:48:32;;;;;;;;;;;;;;;21.18;17.51;99869.81;5097088;28;19955;-78
2024/01/30 05:50:59;;;;;;;;;;;;;;;20.75;17.82;99870.13;5101757;28;19996;-77
2024/01/30 05:53:25;;;;;;;;;;;;;;;21.08;17.98;99866.81;5095476;28;20022;-76
2024/01/30 05:55:51;;;;;;;;;;;;;;;21.07;18.31;99868.00;5100112;28;20417;-77
2024/01/30 05:58:17;;;;;;;;;;;;;;;21.32;17.60;99881.22;5095843;28;20018;-77
2024/01/30 06:00:43;;;;;;;;;;;;;;;21.23;17.70;99880.69;5098421;28;19959;-76
2024/01/30 06:03:09;;;;;;;;;;;;;;;21.06;18.22;99881.16;5104954;27;19959;-76
2024/01/30 06:05:35;;;;;;;;;;;;;;;21.26;17.70;99885.50;5103794;28;20140;-75
2024/01/30 06:08:02;;;;;;;;;;;;;;;21.66;17.77;99881.38;5106933;27;20323;-75
2024/01/30 06:10:28;;;;;;;;;;;;;;;22.02;17.09;99883.59;5105354;27;20066;-76
2024/01/30 06:12:54;;;;;;;;;;;;;;;22.24;16.44;99874.31;5095787;28;19920;-76
2024/01/30 06:15:20;;;;;;;;;;;;;;;22.20;16.83;99876.28;5094629;28;20018;-76
2024/01/30 06:17:46;;;;;;;;;;;;;;;21.58;17.13;99869.31;5077886;28;20431;-76
2024/01/30 06:20:12;;;;;;;;;;;;;;;21.44;17.85;99873.84;5096098;28;19920;-76
2024/01/30 06:22:38;;;;;;;;;;;;;;;21.63;17.42;99868.19;5104756;28;19927;-76
2024/01/30 06:25:04;;;;;;;;;;;;;;;21.89;17.38;99871.03;5111069;27;19947;-76
2024/01/30 06:27:30;;;;;;;;;;;;;;;21.99;16.89;99875.97;5099497;27;20010;-76
2024/01/30 06:29:56;;;;;;;;;;;;;;;21.96;16.65;99876.72;5101864;28;20379;-76
2024/01/30 06:32:22;;;;;;;;;;;;;;;21.94;17.13;99865.09;5105647;28;19955;-76
2024/01/30 06:34:49;;;;;;;;;;;;;;;21.40;17.46;99873.75;5095709;28;19923;-76
2024/01/30 06:37:14;;;;;;;;;;;;;;;21.63;17.29;99873.78;5095674;27;19924;-76
2024/01/30 06:39:40;;;;;;;;;;;;;;;21.70;17.25;99877.50;5097378;28;20004;-76
2024/01/30 06:42:06;;;;;;;;;;;;;;;22.02;16.96;99876.03;5096974;28;19921;-76
2024/01/30 06:44:32;;;;;;;;;;;;;;;22.12;16.88;99874.56;5075692;28;20305;-76
2024/01/30 06:46:59;;;;;;;;;;;;;;;22.37;16.83;99888.91;5076635;28;19917;-76
2024/01/30 06:49:25;;;;;;;;;;;;;;;22.27;16.74;99870.78;5076620;28;19943;-76
2024/01/30 06:51:51;;;;;;;;;;;;;;;21.77;17.10;99876.78;5075501;28;19916;-76
2024/01/30 06:54:17;;;;;;;;;;;;;;;21.93;17.28;99869.91;5064677;28;20424;-76
2024/01/30 06:56:43;;;;;;;;;;;;;;;22.17;17.21;99867.84;5081416;28;19916;-76
2024/01/30 06:59:09;;;;;;;;;;;;;;;22.21;17.49;99866.72;5075072;28;19916;-76
2024/01/30 07:01:35;;;;;;;;;;;;;;;22.28;17.48;99869.59;5075307;28;20393;-78
2024/01/30 07:04:01;;;;;;;;;;;;;;;22.46;17.28;99870.66;5073401;28;20429;-77
2024/01/30 07:06:27;;;;;;;;;;;;;;;22.66;16.98;99866.53;5074725;28;19921;-76
2024/01/30 07:08:53;;;;;;;;;;;;;;;22.78;17.38;99873.06;5074747;28;19921;-77
2024/01/30 07:11:19;;;;;;;;;;;;;;;22.70;17.21;99872.19;5080021;28;19916;-78
2024/01/30 07:13:46;;;;;;;;;;;;;;;22.94;17.00;99876.47;5076854;28;20332;-76
2024/01/30 07:16:12;;;;;;;;;;;;;;;23.00;17.26;99875.72;5088796;28;20023;-76
2024/01/30 07:18:38;;;;;;;;;;;;;;;23.05;17.25;99880.19;5075881;28;19912;-78
2024/01/30 07:21:04;;;;;;;;;;;;;;;22.89;17.14;99885.19;5089988;28;20403;-77
2024/01/30 07:23:30;;;;;;;;;;;;;;;22.69;17.26;99881.75;5074109;28;20389;-78
2024/01/30 07:25:56;;;;;;;;;;;;;;;22.37;17.78;99883.31;5077425;28;19924;-78
2024/01/30 07:28:22;;;;;;;;;;;;;;;22.33;17.82;99874.06;5085751;28;19923;-78
2024/01/30 07:30:49;;;;;;;;;;;;;;;22.44;18.06;99884.22;5085672;28;19931;-78
2024/01/30 07:33:15;;;;;;;;;;;;;;;22.68;17.85;99883.75;5075433;28;19928;-78
2024/01/30 07:35:41;;;;;;;;;;;;;;;23.04;17.86;99879.38;5075806;28;20007;-76
2024/01/30 07:38:07;;;;;;;;;;;;;;;22.79;17.91;99885.88;5073941;28;19916;-77
2024/01/30 07:40:33;;;;;;;;;;;;;;;23.12;17.56;99878.25;5077920;28;19927;-77
2024/01/30 07:42:59;;;;;;;;;;;;;;;23.27;18.22;99880.00;5085162;28;19920;-77
2024/01/30 07:45:27;;;;;;;;;;;;;;;23.21;18.06;99884.34;5088862;28;19928;-77
2024/01/30 07:47:53;;;;;;;;;;;;;;;23.23;18.38;99878.34;5084545;28;19917;-77
2024/01/30 07:50:19;;;;;;;;;;;;;;;23.43;17.94;99874.19;5091785;28;19939;-77
2024/01/30 07:52:45;;;;;;;;;;;;;;;23.48;18.08;99879.41;5082755;28;19961;-77
2024/01/30 07:55:12;;;;;;;;;;;;;;;23.73;17.93;99874.03;5091569;28;19923;-77
2024/01/30 07:57:38;;;;;;;;;;;;;;;23.96;17.68;99864.19;5090062;28;19964;-77
2024/01/30 08:00:07;;;;;;;;;;;;;;;24.08;17.93;99863.09;5084804;28;19920;-77
2024/01/30 08:02:33;;;;;;;;;;;;;;;24.29;17.89;99871.66;5089474;28;20316;-77
2024/01/30 08:04:59;;;;;;;;;;;;;;;24.29;17.78;99873.66;5090895;28;19916;-77
2024/01/30 08:07:25;;;;;;;;;;;;;;;24.20;17.74;99873.97;5087815;28;19916;-77
2024/01/30 08:09:51;;;;;;;;;;;;;;;24.37;17.65;99866.88;5082548;28;19920;-77
2024/01/30 08:12:17;;;;;;;;;;;;;;;24.34;17.87;99874.06;5091572;28;19920;-77
2024/01/30 08:14:43;;;;;;;;;;;;;;;24.21;18.08;99872.81;5086374;28;19947;-77
2024/01/30 08:17:09;;;;;;;;;;;;;;;24.09;18.56;99870.31;5089929;28;20363;-77
2024/01/30 08:19:35;;;;;;;;;;;;;;;24.12;18.76;99865.91;5089795;28;19919;-77
2024/01/30 08:22:01;;;;;;;;;;;;;;;24.07;18.51;99875.50;5084320;28;19916;-77
2024/01/30 08:24:27;;;;;;;;;;;;;;;23.94;18.87;99880.59;5090566;28;20266;-77
2024/01/30 08:26:53;;;;;;;;;;;;;;;23.73;19.20;99882.47;5090428;28;19924;-77
2024/01/30 08:29:19;;;;;;;;;;;;;;;23.85;19.27;99873.75;5091669;28;19923;-77
2024/01/30 08:31:46;;;;;;;;;;;;;;;23.93;19.16;99881.81;5079821;28;20344;-77
2024/01/30 08:34:12;;;;;;;;;;;;;;;24.21;18.78;99880.41;5077098;28;20309;-77
2024/01/30 08:36:38;;;;;;;;;;;;;;;24.00;18.97;99878.25;5082930;28;19971;-77
2024/01/30 08:39:05;;;;;;;;;;;;;;;24.17;19.30;99873.97;5073218;28;20057;-77
2024/01/30 08:41:31;;;;;;;;;;;;;;;23.95;19.33;99871.00;5090378;28;19921;-77
2024/01/30 08:43:57;;;;;;;;;;;;;;;23.90;19.76;99870.53;5091846;28;19920;-77
2024/01/30 08:46:26;;;;;;;;;;;;;;;24.05;19.53;99878.69;5074911;28;20474;-77
2024/01/30 08:48:52;;;;;;;;;;;;;;;24.33;19.19;99869.66;5076314;28;19928;-77
2024/01/30 08:51:18;;;;;;;;;;;;;;;24.30;19.12;99875.25;5089955;28;19924;-77
2024/01/30 08:53:44;;;;;;;;;;;;;;;24.45;19.48;99865.72;5073622;28;20027;-77
2024/01/30 08:56:10;;;;;;;;;;;;;;;24.36;19.50;99868.06;5073007;28;20436;-77
2024/01/30 08:58:36;;;;;;;;;;;;;;;24.55;19.32;99864.97;5084309;28;20313;-77
2024/01/30 09:01:03;;;;;;;;;;;;;;;24.90;18.98;99864.31;5085529;28;19954;-77
2024/01/30 09:03:29;;;;;;;;;;;;;;;24.88;18.96;99863.91;5075480;28;19924;-77
2024/01/30 09:05:55;;;;;;;;;;;;;;;25.06;19.14;99864.78;5089868;28;19931;-77
2024/01/30 09:08:21;;;;;;;;;;;;;;;25.01;19.16;99865.97;5081273;28;20289;-77
2024/01/30 09:10:48;;;;;;;;;;;;;;;25.34;19.01;99865.59;5083163;28;19936;-77
2024/01/30 09:13:14;;;;;;;;;;;;;;;25.42;18.46;99870.03;5084801;28;19959;-77
2024/01/30 09:15:40;;;;;;;;;;;;;;;25.72;18.23;99866.06;5091876;28;20511;-77
2024/01/30 09:18:06;;;;;;;;;;;;;;;25.88;18.77;99864.44;5077759;28;19927;-77
2024/01/30 09:20:32;;;;;;;;;;;;;;;25.91;19.15;99865.63;5079129;28;19971;-77
2024/01/30 09:22:58;;;;;;;;;;;;;;;25.83;19.36;99866.88;5086967;28;20380;-77
2024/01/30 09:25:24;;;;;;;;;;;;;;;25.86;19.58;99863.22;5074930;28;20018;-77
2024/01/30 09:27:50;;;;;;;;;;;;;;;25.89;19.14;99862.44;5086164;28;20009;-77
2024/01/30 09:30:16;;;;;;;;;;;;;;;26.10;19.37;99862.44;5084725;28;20373;-77
2024/01/30 09:32:43;;;;;;;;;;;;;;;26.22;19.45;99858.38;5090020;28;19916;-77
2024/01/30 09:35:09;;;;;;;;;;;;;;;26.38;19.76;99850.28;5082094;28;19920;-77
2024/01/30 09:37:35;;;;;;;;;;;;;;;26.45;18.90;99855.91;5079184;28;19986;-77
2024/01/30 09:40:01;;;;;;;;;;;;;;;26.45;18.92;99841.81;5090107;28;19947;-77
2024/01/30 09:42:37;;;;;;;;;;;;;;;26.50;18.78;99847.84;5084828;28;19920;-77
2024/01/30 09:45:05;;;;;;;;;;;;;;;26.64;18.69;99844.97;5076906;28;19924;-77
2024/01/30 09:47:42;;;;;;;;;;;;;;;26.46;18.75;99835.78;5070619;28;19938;-77
2024/01/30 09:50:09;;;;;;;;;;;;;;;26.40;19.32;99830.97;5089703;28;19963;-77
2024/01/30 09:52:35;;;;;;;;;;;;;;;26.43;19.51;99839.41;5063927;28;19920;-77
2024/01/30 09:55:02;;;;;;;;;;;;;;;26.52;19.64;99834.13;5095466;28;19916;-77
2024/01/30 09:57:28;;;;;;;;;;;;;;;26.25;19.84;99835.84;5089198;28;20016;-77
2024/01/30 09:59:54;;;;;;;;;;;;;;;26.60;19.66;99820.84;5080011;28;19920;-77
2024/01/30 10:02:20;;;;;;;;;;;;;;;26.44;19.16;99820.50;5088242;28;19981;-77
2024/01/30 10:04:50;;;;;;;;;;;;;;;26.73;19.02;99821.97;5079177;28;19920;-77
2024/01/30 10:07:17;;;;;;;;;;;;;;;26.87;17.80;99821.91;5082674;28;20030;-77
2024/01/30 10:09:44;;;;;;;;;;;;;;;26.88;17.58;99817.91;5075832;28;20404;-77
2024/01/30 10:12:10;;;;;;;;;;;;;;;26.65;15.81;99817.59;5076386;28;19929;-77
2024/01/30 10:14:39;;;;;;;;;;;;;;;26.16;15.97;99812.16;5082610;28;19928;-77
2024/01/30 10:17:07;;;;;;;;;;;;;;;26.25;16.26;99806.88;5077156;28;20393;-77
2024/01/30 10:19:33;;;;;;;;;;;;;;;26.17;16.64;99806.09;5084476;28;20381;-77
2024/01/30 10:22:05;;;;;;;;;;;;;;;25.83;17.14;99805.78;5088291;28;19961;-78
2024/01/30 10:24:33;;;;;;;;;;;;;;;26.57;16.82;99804.75;5080804;28;19927;-78
2024/01/30 10:26:59;;;;;;;;;;;;;;;27.13;17.26;99801.63;5089145;28;20405;-78
2024/01/30 10:29:25;;;;;;;;;;;;;;;27.60;14.85;99800.06;5085537;28;20427;-78
2024/01/30 10:32:01;;;;;;;;;;;;;;;27.53;14.89;99800.13;5077137;28;19966;-78
2024/01/30 10:34:27;;;;;;;;;;;;;;;27.54;14.70;99796.06;5081978;28;19927;-78
2024/01/30 10:36:59;;;;;;;;;;;;;;;27.59;15.46;99792.78;5095849;28;20428;-78
2024/01/30 10:39:28;;;;;;;;;;;;;;;27.54;14.69;99801.72;5081238;28;19924;-78
2024/01/30 10:41:56;;;;;;;;;;;;;;;27.60;14.25;99788.78;5071008;28;19920;-78
2024/01/30 10:44:22;;;;;;;;;;;;;;;27.99;15.36;99789.22;5095430;28;19930;-78
2024/01/30 10:46:51;;;;;;;;;;;;;;;28.10;14.46;99782.66;5103383;28;20007;-78
2024/01/30 10:49:17;;;;;;;;;;;;;;;27.84;16.00;99772.81;5115713;28;19959;-78
2024/01/30 10:51:44;;;;;;;;;;;;;;;27.66;17.26;99766.53;5115795;28;19915;-78
2024/01/30 10:54:11;;;;;;;;;;;;;;;26.86;17.81;99780.06;5112848;28;19928;-78
2024/01/30 10:56:38;;;;;;;;;;;;;;;27.23;17.75;99778.19;5096597;27;20347;-78
2024/01/30 10:59:04;;;;;;;;;;;;;;;26.80;17.80;99770.41;5106058;28;19937;-78
2024/01/30 11:01:30;;;;;;;;;;;;;;;27.23;17.51;99769.72;5108385;28;20011;-78
2024/01/30 11:03:57;;;;;;;;;;;;;;;27.74;17.54;99762.44;5105525;27;20022;-78
2024/01/30 11:06:23;;;;;;;;;;;;;;;28.04;16.99;99768.97;5108350;27;19916;-78
2024/01/30 11:09:04;;;;;;;;;;;;;;;28.27;16.49;99757.00;5109667;27;19959;-78
2024/01/30 11:11:30;;;;;;;;;;;;;;;28.62;16.77;99752.94;5106981;28;19949;-78
2024/01/30 11:14:00;;;;;;;;;;;;;;;28.36;17.33;99754.47;5108569;28;20509;-79
2024/01/30 11:16:30;;;;;;;;;;;;;;;27.63;17.04;99753.28;5105984;28;19985;-79
2024/01/30 11:19:00;;;;;;;;;;;;;;;27.61;17.88;99752.91;5110169;28;19920;-79
2024/01/30 11:21:26;;;;;;;;;;;;;;;28.09;16.92;99747.94;5113017;28;20014;-79
2024/01/30 11:23:54;;;;;;;;;;;;;;;28.08;16.95;99748.38;5095529;28;20342;-79
2024/01/30 11:26:23;;;;;;;;;;;;;;;28.03;16.50;99738.31;5108708;28;19965;-79
2024/01/30 11:28:52;;;;;;;;;;;;;;;28.14;17.01;99738.22;5113422;28;19923;-79
2024/01/30 11:31:18;;;;;;;;;;;;;;;28.71;17.25;99725.75;5104430;28;19919;-79
2024/01/30 11:33:44;;;;;;;;;;;;;;;29.13;16.84;99729.13;5104869;28;19926;-79
2024/01/30 11:36:13;;;;;;;;;;;;;;;29.30;15.82;99728.06;5108897;28;20007;-79
2024/01/30 11:38:39;;;;;;;;;;;;;;;29.33;17.24;99725.19;5113526;28;19915;-79
2024/01/30 11:41:05;;;;;;;;;;;;;;;29.45;16.25;99725.78;5113231;28;20002;-78
2024/01/30 11:43:33;;;;;;;;;;;;;;;29.62;16.02;99721.81;5091304;28;19924;-79
2024/01/30 11:45:59;;;;;;;;;;;;;;;29.37;17.85;99728.75;5084376;28;20019;-79
2024/01/30 11:48:26;;;;;;;;;;;;;;;29.08;16.76;99729.63;5076405;28;19924;-78
2024/01/30 11:50:52;;;;;;;;;;;;;;;28.99;16.18;99724.50;5074209;28;19966;-79
2024/01/30 11:53:18;;;;;;;;;;;;;;;29.16;16.58;99723.41;5086177;28;20334;-78
2024/01/30 11:55:49;;;;;;;;;;;;;;;28.42;15.86;99723.72;5083821;28;19965;-78
2024/01/30 11:58:15;;;;;;;;;;;;;;;28.08;16.47;99720.91;5088295;28;19938;-79
2024/01/30 12:00:41;;;;;;;;;;;;;;;26.04;18.63;99726.88;5079586;28;19920;-79
2024/01/30 12:03:08;;;;;;;;;;;;;;;27.12;18.68;99728.72;5079599;28;20288;-79
2024/01/30 12:05:34;;;;;;;;;;;;;;;26.33;18.68;99726.78;5078573;28;20382;-79
2024/01/30 12:08:00;;;;;;;;;;;;;;;24.09;21.52;99726.38;5079874;28;19927;-79
2024/01/30 12:10:26;;;;;;;;;;;;;;;24.25;20.93;99726.88;5083340;28;19927;-79
2024/01/30 12:12:53;;;;;;;;;;;;;;;25.91;20.13;99720.09;5077954;28;19942;-79
2024/01/30 12:15:21;;;;;;;;;;;;;;;25.59;19.03;99718.59;5078270;28;19928;-79
2024/01/30 12:17:47;;;;;;;;;;;;;;;26.28;18.89;99719.56;5082635;28;19948;-79
2024/01/30 12:20:15;;;;;;;;;;;;;;;23.37;21.72;99713.16;5078809;28;20360;-79
2024/01/30 12:22:42;;;;;;;;;;;;;;;23.84;21.91;99713.03;5081630;28;20015;-79
2024/01/30 12:25:09;;;;;;;;;;;;;;;25.24;20.66;99703.34;5086499;28;20366;-79
2024/01/30 12:27:39;;;;;;;;;;;;;;;26.51;19.04;99705.75;5090834;28;20479;-79
2024/01/30 12:30:09;;;;;;;;;;;;;;;26.49;18.84;99704.59;5087894;28;19920;-79
2024/01/30 12:32:42;;;;;;;;;;;;;;;26.71;18.50;99703.22;5087843;28;19955;-79
2024/01/30 12:35:18;;;;;;;;;;;;;;;23.89;22.16;99707.06;5089688;28;20034;-79
2024/01/30 12:37:44;;;;;;;;;;;;;;;21.88;23.35;99712.81;5070058;28;19958;-79
2024/01/30 12:40:13;;;;;;;;;;;;;;;23.54;22.04;99706.84;5088515;28;19960;-79
2024/01/30 12:42:39;;;;;;;;;;;;;;;23.00;22.42;99704.84;5091268;28;19920;-79
2024/01/30 12:45:05;;;;;;;;;;;;;;;23.11;22.32;99700.13;5084615;28;20019;-79